Time;durP1;ratioP1;P1;durP2;ratioP2;P2;SDS_P1;SDS_P2;PMS_P1;PMS_P2;Temp;Humidity;BMP_temperature;BMP_pressure;BME280_temperature;BME280_humidity;BME280_pressure;Samples;Min_cycle;Max_cycle;Signal;HPM_P1;HPM_P2
2022/04/06 00:03:22;;;;;;;6.63;4.13;;;;;;;;;;10449696;27;20079;-63
2022/04/06 00:08:21;;;;;;;5.40;3.90;;;;;;;;;;10446301;27;20049;-63
2022/04/06 00:13:19;;;;;;;6.22;3.90;;;;;;;;;;10467738;27;20088;-63
2022/04/06 00:18:18;;;;;;;5.13;4.65;;;;;;;;;;10471125;27;20086;-63
2022/04/06 00:23:18;;;;;;;5.18;4.10;;;;;;;;;;10472145;27;20074;-62
2022/04/06 00:28:16;;;;;;;4.95;4.00;;;;;;;;;;10451931;27;20069;-63
2022/04/06 00:33:14;;;;;;;5.10;4.20;;;;;;;;;;10456206;27;20061;-63
2022/04/06 00:38:13;;;;;;;6.05;4.60;;;;;;;;;;10454675;27;20316;-63
2022/04/06 00:43:13;;;;;;;6.45;4.03;;;;;;;;;;10449818;27;20074;-63
2022/04/06 00:48:12;;;;;;;4.25;3.85;;;;;;;;;;10470470;27;20070;-63
2022/04/06 00:53:12;;;;;;;4.07;3.63;;;;;;;;;;10471527;27;20062;-63
2022/04/06 00:58:10;;;;;;;8.00;4.75;;;;;;;;;;10471599;27;20039;-63
2022/04/06 01:03:10;;;;;;;5.90;3.75;;;;;;;;;;10470360;27;20069;-63
2022/04/06 01:08:11;;;;;;;5.65;3.45;;;;;;;;;;10470201;27;21046;-63
2022/04/06 01:13:10;;;;;;;4.75;4.03;;;;;;;;;;10450787;27;20082;-62
2022/04/06 01:18:10;;;;;;;4.75;3.70;;;;;;;;;;10470081;27;20524;-62
2022/04/06 01:23:10;;;;;;;6.88;4.85;;;;;;;;;;10469075;27;20043;-62
2022/04/06 01:28:08;;;;;;;4.45;4.05;;;;;;;;;;10469136;27;20067;-62
2022/04/06 01:33:07;;;;;;;6.47;3.85;;;;;;;;;;10470035;27;20067;-62
2022/04/06 01:38:05;;;;;;;4.32;3.83;;;;;;;;;;10466143;27;20071;-62
2022/04/06 01:43:05;;;;;;;6.50;4.25;;;;;;;;;;10473221;27;20151;-61
2022/04/06 01:48:03;;;;;;;4.28;3.88;;;;;;;;;;10461115;27;20073;-62
2022/04/06 01:53:02;;;;;;;5.50;3.78;;;;;;;;;;10445081;27;20542;-62
2022/04/06 01:58:00;;;;;;;3.70;3.40;;;;;;;;;;10469046;27;20385;-62
2022/04/06 02:03:00;;;;;;;4.90;4.40;;;;;;;;;;10448897;27;20065;-62
2022/04/06 02:07:59;;;;;;;4.95;3.65;;;;;;;;;;10461301;27;20077;-62
2022/04/06 02:12:58;;;;;;;4.95;4.38;;;;;;;;;;10440268;27;20074;-62
2022/04/06 02:17:56;;;;;;;9.40;4.35;;;;;;;;;;10467347;27;20456;-63
2022/04/06 02:22:56;;;;;;;6.18;3.65;;;;;;;;;;10444861;27;20079;-62
2022/04/06 02:27:54;;;;;;;4.00;3.63;;;;;;;;;;10467250;27;20074;-65
2022/04/06 02:32:53;;;;;;;4.65;3.40;;;;;;;;;;10460519;27;20457;-62
2022/04/06 02:37:51;;;;;;;4.28;3.88;;;;;;;;;;10466205;27;20047;-63
2022/04/06 02:42:51;;;;;;;4.15;3.42;;;;;;;;;;10466454;27;20070;-62
2022/04/06 02:47:49;;;;;;;4.15;3.75;;;;;;;;;;10466892;27;20077;-62
2022/04/06 02:52:48;;;;;;;4.78;4.20;;;;;;;;;;10466958;27;20316;-62
2022/04/06 02:57:46;;;;;;;5.45;4.03;;;;;;;;;;10437184;27;20325;-62
2022/04/06 03:02:46;;;;;;;7.55;3.83;;;;;;;;;;10441608;27;20080;-62
2022/04/06 03:07:44;;;;;;;5.35;4.07;;;;;;;;;;10442414;27;20066;-62
2022/04/06 03:12:43;;;;;;;4.30;3.90;;;;;;;;;;10462910;27;20070;-62
2022/04/06 03:17:41;;;;;;;5.05;4.40;;;;;;;;;;10444505;27;20537;-63
2022/04/06 03:22:41;;;;;;;4.85;4.32;;;;;;;;;;10451682;27;20114;-63
2022/04/06 03:27:39;;;;;;;6.25;4.07;;;;;;;;;;10465779;27;20081;-62
2022/04/06 03:32:38;;;;;;;4.97;3.97;;;;;;;;;;10463925;27;20077;-63
2022/04/06 03:37:36;;;;;;;5.43;3.55;;;;;;;;;;10467358;27;20075;-63
2022/04/06 03:42:36;;;;;;;5.68;3.78;;;;;;;;;;10443844;27;20075;-62
2022/04/06 03:47:35;;;;;;;5.35;4.32;;;;;;;;;;10453053;27;20082;-62
2022/04/06 03:52:33;;;;;;;6.88;3.97;;;;;;;;;;10458044;27;20499;-61
2022/04/06 03:57:32;;;;;;;5.57;3.97;;;;;;;;;;10457836;27;20518;-63
2022/04/06 04:02:31;;;;;;;5.65;3.85;;;;;;;;;;10449236;27;20073;-63
2022/04/06 04:07:31;;;;;;;5.25;4.40;;;;;;;;;;10475581;27;20070;-63
2022/04/06 04:12:30;;;;;;;4.47;3.85;;;;;;;;;;10449910;27;20073;-62
2022/04/06 04:17:28;;;;;;;6.03;4.78;;;;;;;;;;10457318;27;20070;-62
2022/04/06 04:22:28;;;;;;;5.50;4.88;;;;;;;;;;10476479;27;20623;-63
2022/04/06 04:27:26;;;;;;;8.40;3.47;;;;;;;;;;10470654;27;20074;-62
2022/04/06 04:32:24;;;;;;;4.38;3.97;;;;;;;;;;10460847;27;20070;-62
2022/04/06 04:37:22;;;;;;;5.50;4.32;;;;;;;;;;10457709;27;20150;-63
2022/04/06 04:42:22;;;;;;;4.22;3.83;;;;;;;;;;10452443;27;20043;-62
2022/04/06 04:47:20;;;;;;;3.88;3.50;;;;;;;;;;10468252;27;20529;-62
2022/04/06 04:52:18;;;;;;;5.15;3.90;;;;;;;;;;10449408;27;20073;-63
2022/04/06 04:57:17;;;;;;;5.95;4.38;;;;;;;;;;10448271;27;20043;-62
2022/04/06 05:02:19;;;;;;;6.30;4.18;;;;;;;;;;10448191;27;20086;-63
2022/04/06 05:07:18;;;;;;;4.32;3.90;;;;;;;;;;10443789;27;20062;-62
2022/04/06 05:12:16;;;;;;;4.13;3.78;;;;;;;;;;10455697;27;20071;-63
2022/04/06 05:17:14;;;;;;;5.78;3.50;;;;;;;;;;10454554;27;20137;-62
2022/04/06 05:22:14;;;;;;;5.22;4.13;;;;;;;;;;10463349;27;20070;-62
2022/04/06 05:27:12;;;;;;;5.35;4.68;;;;;;;;;;10457496;27;20354;-63
2022/04/06 05:32:10;;;;;;;4.38;3.80;;;;;;;;;;10434755;27;21325;-62
2022/04/06 05:37:08;;;;;;;4.22;3.83;;;;;;;;;;10450163;27;20503;-62
2022/04/06 05:42:09;;;;;;;5.57;4.30;;;;;;;;;;10457741;27;20058;-63
2022/04/06 05:47:07;;;;;;;5.15;4.30;;;;;;;;;;10444982;27;20067;-62
2022/04/06 05:52:05;;;;;;;10.48;5.82;;;;;;;;;;10471782;27;20074;-62
2022/04/06 05:57:04;;;;;;;8.68;5.00;;;;;;;;;;10467466;27;20077;-62
2022/04/06 06:02:04;;;;;;;15.60;6.30;;;;;;;;;;10446505;27;20058;-62
2022/04/06 06:07:02;;;;;;;11.73;5.20;;;;;;;;;;10465025;27;20081;-63
2022/04/06 06:12:00;;;;;;;13.77;6.20;;;;;;;;;;10465700;27;20066;-63
2022/04/06 06:16:59;;;;;;;7.55;5.85;;;;;;;;;;10468182;27;20082;-63
2022/04/06 06:21:59;;;;;;;11.25;6.55;;;;;;;;;;10476473;27;20459;-62
2022/04/06 06:26:57;;;;;;;14.98;5.88;;;;;;;;;;10470669;27;20081;-63
2022/04/06 06:31:55;;;;;;;11.65;6.32;;;;;;;;;;10472815;27;20061;-63
2022/04/06 06:36:53;;;;;;;7.38;6.43;;;;;;;;;;10479905;27;20070;-63
2022/04/06 06:41:53;;;;;;;14.75;6.70;;;;;;;;;;10474410;27;20070;-63
2022/04/06 06:46:51;;;;;;;8.27;5.70;;;;;;;;;;10471437;27;20062;-62
2022/04/06 06:51:53;;;;;;;9.52;5.70;;;;;;;;;;10478426;27;20049;-63
2022/04/06 06:56:52;;;;;;;15.88;6.65;;;;;;;;;;10478595;27;20057;-62
2022/04/06 07:01:51;;;;;;;10.82;5.85;;;;;;;;;;10478443;27;20057;-62
2022/04/06 07:06:49;;;;;;;15.65;10.57;;;;;;;;;;10474848;27;20067;-62
2022/04/06 07:11:47;;;;;;;9.65;6.88;;;;;;;;;;10464388;27;20514;-63
2022/04/06 07:16:47;;;;;;;16.77;8.70;;;;;;;;;;10465678;27;20444;-63
2022/04/06 07:21:46;;;;;;;13.30;7.00;;;;;;;;;;10468687;27;20070;-63
2022/04/06 07:26:44;;;;;;;12.20;6.20;;;;;;;;;;10473768;27;20070;-63
2022/04/06 07:31:42;;;;;;;12.40;7.68;;;;;;;;;;10443692;27;20058;-64
2022/04/06 07:36:42;;;;;;;8.63;6.97;;;;;;;;;;10447844;27;20085;-63
2022/04/06 07:41:40;;;;;;;10.45;7.25;;;;;;;;;;10472291;27;20039;-63
2022/04/06 07:46:39;;;;;;;7.68;6.15;;;;;;;;;;10472109;27;20081;-62
2022/04/06 07:51:37;;;;;;;10.13;5.50;;;;;;;;;;10472151;27;20043;-62
2022/04/06 07:56:39;;;;;;;8.57;6.20;;;;;;;;;;10472601;27;20479;-62
2022/04/06 08:01:37;;;;;;;8.95;6.47;;;;;;;;;;10472238;27;20065;-63
2022/04/06 08:06:36;;;;;;;7.75;6.38;;;;;;;;;;10472649;27;20066;-63
2022/04/06 08:11:34;;;;;;;6.60;4.97;;;;;;;;;;10476094;27;20082;-63
2022/04/06 08:16:34;;;;;;;8.45;6.18;;;;;;;;;;10485219;27;20086;-62
2022/04/06 08:21:32;;;;;;;7.50;5.50;;;;;;;;;;10480882;27;20073;-62
2022/04/06 08:26:30;;;;;;;7.82;5.60;;;;;;;;;;10471573;27;20180;-63
2022/04/06 08:31:31;;;;;;;6.70;5.68;;;;;;;;;;10474774;27;20355;-62
2022/04/06 08:36:30;;;;;;;9.50;4.90;;;;;;;;;;10483014;27;20047;-62
2022/04/06 08:41:30;;;;;;;7.05;4.63;;;;;;;;;;10479808;27;20444;-63
2022/04/06 08:46:32;;;;;;;8.52;5.07;;;;;;;;;;10470384;27;20075;-62
2022/04/06 08:51:34;;;;;;;8.82;5.85;;;;;;;;;;10470326;27;20093;-64
2022/04/06 08:56:32;;;;;;;7.20;4.80;;;;;;;;;;10470386;27;20062;-63
2022/04/06 09:01:33;;;;;;;6.95;5.30;;;;;;;;;;10469132;27;20066;-62
2022/04/06 09:06:39;;;;;;;10.18;6.93;;;;;;;;;;10469767;27;20440;-63
2022/04/06 09:11:41;;;;;;;8.43;6.10;;;;;;;;;;10470305;27;20458;-62
2022/04/06 09:16:42;;;;;;;12.70;6.50;;;;;;;;;;10453376;27;20498;-63
2022/04/06 09:21:42;;;;;;;6.53;5.47;;;;;;;;;;10452954;27;20046;-62
2022/04/06 09:26:41;;;;;;;6.97;5.03;;;;;;;;;;10468843;27;20698;-63
2022/04/06 09:31:40;;;;;;;8.43;6.40;;;;;;;;;;10468493;27;20069;-62
2022/04/06 09:36:39;;;;;;;10.57;5.50;;;;;;;;;;10468468;27;20538;-62
2022/04/06 09:41:57;;;;;;;13.20;6.95;;;;;;;;;;10468239;27;20042;-63
2022/04/06 09:52:28;;;;;;;8.65;5.82;;;;;;;;;;10468759;27;20043;-63
2022/04/06 09:57:29;;;;;;;5.75;5.00;;;;;;;;;;10469028;27;20066;-63
2022/04/06 10:02:28;;;;;;;6.07;5.38;;;;;;;;;;10471898;27;20079;-64
2022/04/06 10:07:26;;;;;;;7.38;5.63;;;;;;;;;;10446742;27;20074;-64
2022/04/06 10:12:27;;;;;;;6.45;5.68;;;;;;;;;;10477635;27;20039;-63
2022/04/06 10:17:40;;;;;;;7.18;5.80;;;;;;;;;;10480639;27;20138;-64
2022/04/06 10:22:40;;;;;;;8.95;5.53;;;;;;;;;;10467721;27;20087;-63
2022/04/06 10:27:42;;;;;;;8.10;5.80;;;;;;;;;;10467334;27;20074;-64
2022/04/06 10:32:42;;;;;;;9.00;6.35;;;;;;;;;;10467575;27;20059;-63
2022/04/06 10:37:48;;;;;;;6.93;5.25;;;;;;;;;;10467263;27;20047;-61
2022/04/06 10:42:49;;;;;;;5.57;4.53;;;;;;;;;;10436787;27;20457;-63
2022/04/06 10:53:31;;;;;;;9.18;5.55;;;;;;;;;;10376291;27;20404;-63
2022/04/06 10:59:03;;;;;;;5.35;3.90;;;;;;;;;;10389757;28;20047;-63
2022/04/06 11:04:03;;;;;;;7.13;4.82;;;;;;;;;;10389786;28;20075;-63
2022/04/06 11:14:37;;;;;;;7.32;4.20;;;;;;;;;;10359187;28;20114;-63
2022/04/06 11:19:48;;;;;;;10.05;4.28;;;;;;;;;;10348302;28;20044;-63
2022/04/06 11:24:50;;;;;;;6.82;5.10;;;;;;;;;;10347827;28;20076;-63
2022/04/06 11:29:48;;;;;;;6.28;4.88;;;;;;;;;;10358498;28;20128;-63
2022/04/06 11:34:46;;;;;;;4.30;2.78;;;;;;;;;;10356516;28;20070;-63
2022/04/06 11:39:44;;;;;;;6.55;3.45;;;;;;;;;;10358186;28;20523;-63
2022/04/06 11:44:44;;;;;;;4.32;3.30;;;;;;;;;;10357467;28;20040;-63
2022/04/06 11:49:43;;;;;;;5.75;3.92;;;;;;;;;;10356905;28;20083;-63
2022/04/06 11:54:49;;;;;;;4.03;3.40;;;;;;;;;;10357291;28;20560;-63
2022/04/06 11:59:58;;;;;;;3.75;3.08;;;;;;;;;;10346055;28;20068;-63
2022/04/06 12:04:59;;;;;;;8.43;3.13;;;;;;;;;;10318688;28;20044;-63
2022/04/06 12:09:58;;;;;;;4.32;3.92;;;;;;;;;;10318566;28;20080;-62
2022/04/06 12:14:56;;;;;;;3.80;2.72;;;;;;;;;;10309806;28;20121;-63
2022/04/06 12:19:56;;;;;;;7.30;3.25;;;;;;;;;;10324514;28;20064;-63
2022/04/06 12:24:56;;;;;;;7.57;3.63;;;;;;;;;;10327611;28;20051;-63
2022/04/06 12:30:04;;;;;;;7.80;3.72;;;;;;;;;;10318135;28;20481;-63
2022/04/06 12:35:17;;;;;;;5.90;3.80;;;;;;;;;;10317031;28;20048;-63
2022/04/06 12:40:23;;;;;;;5.50;2.97;;;;;;;;;;10328392;28;20083;-63
2022/04/06 12:45:21;;;;;;;4.68;3.40;;;;;;;;;;10317348;28;20080;-63
2022/04/06 12:50:20;;;;;;;4.40;3.53;;;;;;;;;;10316762;28;20087;-63
2022/04/06 12:55:20;;;;;;;4.93;2.70;;;;;;;;;;10327912;28;20090;-63
2022/04/06 13:00:21;;;;;;;3.08;2.65;;;;;;;;;;10316720;28;20045;-62
2022/04/06 13:05:21;;;;;;;3.63;2.85;;;;;;;;;;10316616;28;20417;-63
2022/04/06 13:10:20;;;;;;;6.13;2.67;;;;;;;;;;10316506;28;20076;-63
2022/04/06 13:15:19;;;;;;;4.20;3.40;;;;;;;;;;10315722;28;20083;-63
2022/04/06 13:20:19;;;;;;;5.55;3.50;;;;;;;;;;10326758;28;20064;-63
2022/04/06 13:25:17;;;;;;;3.85;2.97;;;;;;;;;;10315633;28;20119;-63
2022/04/06 13:30:16;;;;;;;6.45;3.25;;;;;;;;;;10315333;28;20068;-63
2022/04/06 13:35:15;;;;;;;3.83;3.42;;;;;;;;;;10326332;28;20473;-63
2022/04/06 13:40:15;;;;;;;5.32;3.90;;;;;;;;;;10314985;28;20044;-64
2022/04/06 13:45:13;;;;;;;11.73;6.95;;;;;;;;;;10314471;28;20056;-64
2022/04/06 13:50:11;;;;;;;4.50;2.50;;;;;;;;;;10325017;28;20516;-63
2022/04/06 13:55:10;;;;;;;6.38;3.45;;;;;;;;;;10325456;28;20048;-64
2022/04/06 14:00:11;;;;;;;7.25;4.78;;;;;;;;;;10314293;28;20126;-64
2022/04/06 14:05:11;;;;;;;5.90;3.65;;;;;;;;;;10314751;28;20051;-64
2022/04/06 14:10:09;;;;;;;16.83;11.00;;;;;;;;;;10314022;28;20102;-61
2022/04/06 14:15:07;;;;;;;15.90;10.00;;;;;;;;;;10313937;28;20071;-61
2022/04/06 14:20:08;;;;;;;2.42;2.20;;;;;;;;;;10324012;28;20083;-60
2022/04/06 14:25:20;;;;;;;8.20;2.63;;;;;;;;;;10324331;28;20084;-64
2022/04/06 14:30:19;;;;;;;3.72;2.83;;;;;;;;;;10324450;28;20089;-63
2022/04/06 14:35:19;;;;;;;4.90;2.90;;;;;;;;;;10324288;28;20064;-64
2022/04/06 14:40:18;;;;;;;8.68;2.60;;;;;;;;;;10324079;28;20174;-64
2022/04/06 14:45:18;;;;;;;2.15;1.75;;;;;;;;;;10323898;28;20488;-64
2022/04/06 14:50:21;;;;;;;10.32;3.03;;;;;;;;;;10323563;28;20076;-64
2022/04/06 14:55:19;;;;;;;4.72;2.22;;;;;;;;;;10313353;28;20056;-63
2022/04/06 15:00:17;;;;;;;2.67;2.30;;;;;;;;;;10313231;28;20040;-63
2022/04/06 15:05:16;;;;;;;5.78;2.92;;;;;;;;;;10313100;28;20041;-64
2022/04/06 15:10:15;;;;;;;5.80;3.42;;;;;;;;;;10312728;28;20095;-64
2022/04/06 15:15:13;;;;;;;4.20;2.92;;;;;;;;;;10323385;28;20103;-64
2022/04/06 15:20:18;;;;;;;5.50;3.67;;;;;;;;;;10323280;28;20060;-64
2022/04/06 15:25:20;;;;;;;2.92;2.63;;;;;;;;;;10323250;28;20071;-64
2022/04/06 15:30:19;;;;;;;3.28;2.90;;;;;;;;;;10323021;28;20080;-63
2022/04/06 15:40:35;;;;;;;6.05;3.35;;;;;;;;;;10330333;28;20071;-63
2022/04/06 15:45:33;;;;;;;5.28;3.17;;;;;;;;;;10330250;28;20052;-63
2022/04/06 15:50:33;;;;;;;4.25;3.63;;;;;;;;;;10329371;28;20143;-63
2022/04/06 15:55:32;;;;;;;7.07;5.30;;;;;;;;;;10329985;28;20054;-63
2022/04/06 16:00:32;;;;;;;19.23;14.70;;;;;;;;;;10329646;28;20135;-64
2022/04/06 16:05:30;;;;;;;10.30;8.23;;;;;;;;;;10330034;28;20547;-63
2022/04/06 16:10:29;;;;;;;9.57;5.07;;;;;;;;;;10329284;28;20485;-63
2022/04/06 16:15:28;;;;;;;3.97;2.50;;;;;;;;;;10329506;28;20447;-63
2022/04/06 16:20:28;;;;;;;5.90;3.05;;;;;;;;;;10327977;28;20045;-63
2022/04/06 16:25:26;;;;;;;5.22;4.13;;;;;;;;;;10323174;28;20068;-63
2022/04/06 16:30:26;;;;;;;12.52;9.02;;;;;;;;;;10311427;28;20071;-63
2022/04/06 16:35:24;;;;;;;23.52;17.30;;;;;;;;;;10310603;28;20598;-62
2022/04/06 16:40:24;;;;;;;24.90;16.30;;;;;;;;;;10310072;28;20072;-62
2022/04/06 16:45:22;;;;;;;32.28;20.42;;;;;;;;;;10312460;28;20064;-62
2022/04/06 16:55:37;;;;;;;36.25;28.20;;;;;;;;;;10313579;28;20075;-63
2022/04/06 17:00:36;;;;;;;28.48;16.88;;;;;;;;;;10321081;28;20079;-64
2022/04/06 17:05:34;;;;;;;33.75;21.52;;;;;;;;;;10304182;28;20292;-64
2022/04/06 17:10:32;;;;;;;57.45;34.95;;;;;;;;;;10332727;28;20075;-65
2022/04/06 17:15:34;;;;;;;32.30;19.30;;;;;;;;;;10318628;28;20068;-64
2022/04/06 17:20:32;;;;;;;21.13;14.13;;;;;;;;;;10306829;28;20095;-63
2022/04/06 17:25:31;;;;;;;16.33;10.85;;;;;;;;;;10311201;28;20156;-64
2022/04/06 17:30:30;;;;;;;27.38;12.90;;;;;;;;;;10317497;28;20106;-64
2022/04/06 17:35:31;;;;;;;16.92;9.02;;;;;;;;;;10331273;28;20513;-62
2022/04/06 17:40:30;;;;;;;20.80;12.55;;;;;;;;;;10312331;28;20075;-62
2022/04/06 17:45:29;;;;;;;11.40;7.90;;;;;;;;;;10309164;28;20076;-63
2022/04/06 17:50:28;;;;;;;12.15;6.57;;;;;;;;;;10308363;28;20076;-62
2022/04/06 17:55:28;;;;;;;12.60;7.93;;;;;;;;;;10316957;28;20098;-63
2022/04/06 18:00:26;;;;;;;11.18;7.88;;;;;;;;;;10315460;28;20056;-63
2022/04/06 18:05:25;;;;;;;8.30;6.00;;;;;;;;;;10311731;28;20060;-64
2022/04/06 18:10:23;;;;;;;5.95;4.57;;;;;;;;;;10308653;28;20075;-63
2022/04/06 18:15:22;;;;;;;16.92;9.60;;;;;;;;;;10313495;28;20091;-63
2022/04/06 18:20:21;;;;;;;11.48;6.57;;;;;;;;;;10315844;28;20067;-63
2022/04/06 18:25:21;;;;;;;11.02;6.80;;;;;;;;;;10315028;28;20464;-63
2022/04/06 18:30:23;;;;;;;14.98;9.18;;;;;;;;;;10319410;28;20083;-62
2022/04/06 18:35:22;;;;;;;14.88;8.32;;;;;;;;;;10312348;28;20083;-63
2022/04/06 18:40:20;;;;;;;5.85;4.63;;;;;;;;;;10311211;28;20076;-63
2022/04/06 18:45:18;;;;;;;13.82;9.07;;;;;;;;;;10320565;28;20422;-63
2022/04/06 18:50:18;;;;;;;7.28;6.05;;;;;;;;;;10314910;28;20088;-63
2022/04/06 18:55:16;;;;;;;8.27;4.70;;;;;;;;;;10323398;28;20064;-64
2022/04/06 19:00:15;;;;;;;9.93;6.10;;;;;;;;;;10308864;28;20072;-64
2022/04/06 19:05:14;;;;;;;6.97;5.57;;;;;;;;;;10307123;28;20072;-64
2022/04/06 19:10:14;;;;;;;4.03;2.80;;;;;;;;;;10314464;28;20064;-63
2022/04/06 19:15:13;;;;;;;10.38;6.68;;;;;;;;;;10332233;28;20466;-62
2022/04/06 19:20:18;;;;;;;6.18;3.50;;;;;;;;;;10317043;28;20068;-62
2022/04/06 19:25:19;;;;;;;8.30;4.72;;;;;;;;;;10400963;27;20068;-63
2022/04/06 19:30:17;;;;;;;9.65;5.88;;;;;;;;;;10405403;27;20063;-64
2022/04/06 19:35:17;;;;;;;5.95;3.72;;;;;;;;;;10403086;27;20075;-63
2022/04/06 19:40:15;;;;;;;9.52;3.80;;;;;;;;;;10397695;27;20078;-64
2022/04/06 19:45:15;;;;;;;5.10;4.10;;;;;;;;;;10396011;27;20071;-63
2022/04/06 19:50:13;;;;;;;4.00;3.42;;;;;;;;;;10399282;27;20461;-64
2022/04/06 19:55:11;;;;;;;5.15;4.15;;;;;;;;;;10405072;27;20503;-64
2022/04/06 20:00:10;;;;;;;6.88;4.15;;;;;;;;;;10400311;27;20055;-64
2022/04/06 20:05:10;;;;;;;9.05;6.53;;;;;;;;;;10405678;27;20064;-63
2022/04/06 20:10:09;;;;;;;7.05;3.50;;;;;;;;;;10401094;27;20504;-63
2022/04/06 20:15:07;;;;;;;10.98;5.03;;;;;;;;;;10400812;27;20090;-63
2022/04/06 20:20:06;;;;;;;9.98;4.75;;;;;;;;;;10399458;27;20082;-63
2022/04/06 20:25:06;;;;;;;7.25;4.25;;;;;;;;;;10393227;27;20544;-63
2022/04/06 20:30:05;;;;;;;6.68;3.78;;;;;;;;;;10406349;27;20063;-63
2022/04/06 20:35:04;;;;;;;12.27;4.32;;;;;;;;;;10393425;27;20071;-63
2022/04/06 20:40:08;;;;;;;4.22;3.70;;;;;;;;;;10394509;27;20573;-64
2022/04/06 20:45:11;;;;;;;8.40;4.22;;;;;;;;;;10396424;27;20067;-63
2022/04/06 20:50:10;;;;;;;5.10;3.67;;;;;;;;;;10391792;27;20098;-63
2022/04/06 20:55:09;;;;;;;6.15;4.47;;;;;;;;;;10388248;27;20681;-63
2022/04/06 21:00:09;;;;;;;13.13;4.60;;;;;;;;;;10377298;27;20075;-63
2022/04/06 21:05:12;;;;;;;7.57;4.15;;;;;;;;;;10401150;27;20067;-63
2022/04/06 21:10:11;;;;;;;5.03;4.07;;;;;;;;;;10406013;27;20456;-64
2022/04/06 21:15:12;;;;;;;7.95;3.83;;;;;;;;;;10405271;27;20079;-64
2022/04/06 21:20:12;;;;;;;5.80;4.35;;;;;;;;;;10407403;27;20071;-64
2022/04/06 21:25:12;;;;;;;17.77;4.63;;;;;;;;;;10408710;27;20463;-63
2022/04/06 21:30:12;;;;;;;5.03;4.18;;;;;;;;;;10408323;27;20071;-63
2022/04/06 21:35:10;;;;;;;6.28;4.00;;;;;;;;;;10407262;27;20083;-63
2022/04/06 21:40:09;;;;;;;4.57;3.47;;;;;;;;;;10408674;27;20671;-63
2022/04/06 21:45:07;;;;;;;7.57;3.60;;;;;;;;;;10407680;27;20079;-63
2022/04/06 21:50:07;;;;;;;4.95;4.28;;;;;;;;;;10407988;27;20083;-63
2022/04/06 21:55:07;;;;;;;6.57;3.22;;;;;;;;;;10407294;27;20094;-62
2022/04/06 22:00:06;;;;;;;4.90;3.80;;;;;;;;;;10406617;27;20078;-62
2022/04/06 22:05:09;;;;;;;4.30;3.53;;;;;;;;;;10408901;27;20109;-62
2022/04/06 22:10:08;;;;;;;6.63;4.32;;;;;;;;;;10407669;27;20078;-62
2022/04/06 22:15:07;;;;;;;5.30;3.58;;;;;;;;;;10407496;27;20083;-63
2022/04/06 22:20:05;;;;;;;5.15;3.78;;;;;;;;;;10406872;27;20074;-62
2022/04/06 22:25:05;;;;;;;4.75;3.40;;;;;;;;;;10406822;27;20085;-62
2022/04/06 22:30:04;;;;;;;6.95;3.47;;;;;;;;;;10406158;27;20067;-63
2022/04/06 22:35:02;;;;;;;4.68;3.35;;;;;;;;;;10405813;27;20598;-63
2022/04/06 22:40:01;;;;;;;7.07;4.05;;;;;;;;;;10406039;27;20506;-64
2022/04/06 22:45:01;;;;;;;6.95;3.75;;;;;;;;;;10405184;27;20071;-63
2022/04/06 22:49:59;;;;;;;4.10;3.47;;;;;;;;;;10394561;28;20078;-63
2022/04/06 22:54:59;;;;;;;3.92;3.33;;;;;;;;;;10394772;28;20103;-63
2022/04/06 22:59:57;;;;;;;3.78;3.45;;;;;;;;;;10394096;28;20044;-63
2022/04/06 23:04:57;;;;;;;7.15;4.05;;;;;;;;;;10404548;28;20079;-63
2022/04/06 23:09:55;;;;;;;5.38;3.75;;;;;;;;;;10410961;28;20189;-63
2022/04/06 23:14:54;;;;;;;6.30;3.60;;;;;;;;;;10405265;28;20086;-63
2022/04/06 23:19:52;;;;;;;4.18;3.78;;;;;;;;;;10406174;28;20043;-64
2022/04/06 23:24:52;;;;;;;6.70;3.80;;;;;;;;;;10405490;28;20067;-63
2022/04/06 23:29:50;;;;;;;4.25;3.85;;;;;;;;;;10404885;28;20109;-63
2022/04/06 23:34:48;;;;;;;4.32;3.35;;;;;;;;;;10403329;28;20091;-63
2022/04/06 23:39:46;;;;;;;5.97;4.03;;;;;;;;;;10405404;28;20067;-63
2022/04/06 23:44:47;;;;;;;4.88;3.70;;;;;;;;;;10386915;28;20043;-63
2022/04/06 23:49:45;;;;;;;4.25;3.85;;;;;;;;;;10405266;28;20090;-63
2022/04/06 23:54:44;;;;;;;4.40;4.00;;;;;;;;;;10404749;28;20063;-63
2022/04/06 23:59:42;;;;;;;4.90;4.22;;;;;;;;;;10409963;27;20089;-64
